Time;durP1;ratioP1;P1;durP2;ratioP2;P2;SDS_P1;SDS_P2;PMS_P1;PMS_P2;Temp;Humidity;BMP_temperature;BMP_pressure;BME280_temperature;BME280_humidity;BME280_pressure;Samples;Min_cycle;Max_cycle;Signal;HPM_P1;HPM_P2
2021/01/14 00:00:38;;;;;;;0.93;0.80;;;20.20;20.40;;;;;;4974901;28;20168;-52
2021/01/14 00:03:06;;;;;;;1.10;1.00;;;20.20;20.40;;;;;;4974824;28;20154;-52
2021/01/14 00:05:31;;;;;;;1.00;0.85;;;20.20;20.30;;;;;;4974960;28;20614;-52
2021/01/14 00:07:57;;;;;;;0.80;0.80;;;20.20;20.40;;;;;;4974242;28;20169;-52
2021/01/14 00:10:23;;;;;;;0.93;0.70;;;20.20;20.40;;;;;;4974752;28;20170;-52
2021/01/14 00:12:48;;;;;;;0.77;0.70;;;20.20;20.40;;;;;;4974577;28;20580;-53
2021/01/14 00:15:16;;;;;;;1.20;0.67;;;20.20;20.40;;;;;;4974664;28;20648;-52
2021/01/14 00:17:42;;;;;;;0.90;0.80;;;20.20;20.40;;;;;;4974645;28;20169;-52
2021/01/14 00:20:17;;;;;;;0.68;0.63;;;20.20;20.40;;;;;;4974674;28;20233;-52
2021/01/14 00:22:43;;;;;;;1.10;0.90;;;20.20;20.40;;;;;;4974424;28;20208;-53
2021/01/14 00:25:11;;;;;;;1.10;0.85;;;20.20;20.40;;;;;;4974582;28;20645;-51
2021/01/14 00:38:20;;;;;;;1.08;0.93;;;20.20;20.40;;;;;;5007874;28;20223;-51
2021/01/14 00:40:45;;;;;;;0.75;0.70;;;20.20;20.30;;;;;;5013364;28;20165;-52
2021/01/14 00:43:12;;;;;;;1.23;0.80;;;20.20;20.40;;;;;;5013262;28;20604;-52
2021/01/14 00:45:38;;;;;;;0.90;0.75;;;20.20;20.40;;;;;;5013671;28;20187;-51
2021/01/14 00:48:04;;;;;;;2.08;0.90;;;20.20;20.40;;;;;;5013475;28;20157;-52
2021/01/14 00:50:30;;;;;;;1.77;0.80;;;20.20;20.40;;;;;;5013360;28;20168;-52
2021/01/14 00:52:56;;;;;;;1.00;0.90;;;20.20;20.40;;;;;;5016562;28;20169;-52
2021/01/14 00:55:21;;;;;;;1.03;0.93;;;20.20;20.40;;;;;;5015942;28;20933;-51
2021/01/14 00:57:47;;;;;;;1.27;0.80;;;20.20;20.40;;;;;;5016944;28;20645;-52
2021/01/14 01:00:18;;;;;;;1.30;0.80;;;20.20;20.40;;;;;;5017047;28;20673;-52
2021/01/14 01:02:49;;;;;;;1.08;0.88;;;20.20;20.40;;;;;;4994404;28;20402;-52
2021/01/14 01:33:07;;;;;;;0.73;0.65;;;20.10;20.30;;;;;;5050666;28;20814;-53
2021/01/14 01:35:32;;;;;;;1.20;0.82;;;20.10;20.30;;;;;;5056022;28;20576;-53
2021/01/14 01:37:58;;;;;;;0.90;0.80;;;20.10;20.30;;;;;;5055478;28;20613;-53
2021/01/14 01:40:25;;;;;;;1.10;0.70;;;20.10;20.30;;;;;;5055862;28;20152;-53
2021/01/14 01:42:57;;;;;;;0.82;0.70;;;20.10;20.30;;;;;;5055767;28;20151;-52
2021/01/14 01:45:22;;;;;;;1.17;0.90;;;20.10;20.30;;;;;;5055866;28;20297;-53
2021/01/14 01:47:49;;;;;;;0.80;0.73;;;20.10;20.30;;;;;;5055796;28;20250;-53
2021/01/14 01:50:15;;;;;;;1.40;0.98;;;20.10;20.30;;;;;;5055784;28;20205;-52
2021/01/14 01:52:41;;;;;;;0.80;0.75;;;20.10;20.30;;;;;;5055461;28;20213;-52
2021/01/14 01:55:08;;;;;;;1.63;1.10;;;20.10;20.30;;;;;;5055917;28;20194;-52
2021/01/14 01:57:34;;;;;;;0.88;0.73;;;20.10;20.30;;;;;;5055642;28;20479;-53
2021/01/14 01:59:59;;;;;;;1.17;1.00;;;20.10;20.30;;;;;;5055642;28;20258;-53
2021/01/14 02:02:27;;;;;;;0.70;0.70;;;20.10;20.30;;;;;;5053236;28;20432;-53
2021/01/14 02:04:54;;;;;;;0.60;0.60;;;20.10;20.30;;;;;;5055371;28;20159;-52
2021/01/14 02:07:47;;;;;;;1.05;0.73;;;20.10;20.30;;;;;;5055035;28;20187;-53
2021/01/14 02:10:30;;;;;;;0.90;0.80;;;20.10;20.30;;;;;;5055441;28;20242;-52
2021/01/14 02:13:20;;;;;;;1.33;0.82;;;20.10;20.30;;;;;;5055331;28;20589;-53
2021/01/14 02:15:48;;;;;;;1.08;0.98;;;20.10;20.40;;;;;;5055331;28;20182;-52
2021/01/14 02:35:55;;;;;;;0.80;0.70;;;20.10;20.30;;;;;;5052116;28;20245;-53
2021/01/14 02:38:21;;;;;;;0.88;0.85;;;20.10;20.30;;;;;;5054333;28;20147;-53
2021/01/14 02:40:47;;;;;;;0.70;0.60;;;20.10;20.30;;;;;;5037394;28;20169;-53
2021/01/14 02:43:12;;;;;;;1.03;0.90;;;20.10;20.30;;;;;;5054833;28;20160;-53
2021/01/14 02:45:38;;;;;;;0.93;0.90;;;20.10;20.30;;;;;;5054764;28;20175;-53
2021/01/14 02:48:05;;;;;;;0.90;0.80;;;20.10;20.40;;;;;;5036788;28;20174;-53
2021/01/14 02:50:37;;;;;;;1.05;0.77;;;20.10;20.40;;;;;;5054792;28;20160;-52
2021/01/14 02:53:03;;;;;;;0.70;0.60;;;20.10;20.30;;;;;;5053980;28;20151;-53
2021/01/14 02:55:29;;;;;;;0.90;0.70;;;20.10;20.40;;;;;;5054497;28;20214;-52
2021/01/14 02:57:56;;;;;;;0.85;0.73;;;20.10;20.40;;;;;;5036566;28;20174;-53
2021/01/14 03:00:22;;;;;;;0.98;0.88;;;20.10;20.40;;;;;;5054399;28;20162;-52
2021/01/14 03:02:47;;;;;;;0.90;0.80;;;20.10;20.40;;;;;;5054479;28;20537;-52
2021/01/14 03:05:13;;;;;;;2.00;0.80;;;20.10;20.30;;;;;;5054394;28;20410;-53
2021/01/14 03:07:41;;;;;;;0.60;0.50;;;20.10;20.30;;;;;;5053809;28;20172;-53
2021/01/14 03:10:08;;;;;;;0.80;0.63;;;20.10;20.30;;;;;;5054426;28;20160;-52
2021/01/14 03:12:33;;;;;;;0.70;0.70;;;20.10;20.30;;;;;;5054056;28;20229;-52
2021/01/14 03:14:59;;;;;;;0.80;0.80;;;20.10;20.30;;;;;;5053785;28;20222;-53
2021/01/14 03:17:24;;;;;;;1.77;0.70;;;20.10;20.30;;;;;;5054074;28;20290;-53
2021/01/14 03:19:54;;;;;;;0.90;0.80;;;20.10;20.40;;;;;;5054237;28;20509;-53
2021/01/14 03:22:20;;;;;;;1.05;0.95;;;20.10;20.40;;;;;;5053257;28;20618;-53
2021/01/14 03:24:45;;;;;;;1.67;0.80;;;20.10;20.30;;;;;;5054085;28;20167;-53
2021/01/14 03:27:11;;;;;;;0.80;0.60;;;20.10;20.40;;;;;;5053869;28;20171;-53
2021/01/14 03:29:36;;;;;;;1.00;0.70;;;20.10;20.30;;;;;;5053975;28;20171;-53
2021/01/14 03:32:03;;;;;;;1.23;0.73;;;20.10;20.30;;;;;;5053900;28;20629;-53
2021/01/14 03:34:29;;;;;;;1.02;0.80;;;20.10;20.30;;;;;;5036021;28;20191;-53
2021/01/14 03:36:58;;;;;;;1.30;0.98;;;20.10;20.30;;;;;;5045909;28;20226;-53
2021/01/14 03:39:27;;;;;;;0.70;0.70;;;20.10;20.30;;;;;;5033491;28;20156;-53
2021/01/14 03:41:54;;;;;;;0.90;0.82;;;20.10;20.30;;;;;;5033791;28;20156;-52
2021/01/14 03:44:20;;;;;;;1.38;0.90;;;20.10;20.30;;;;;;5033916;28;20159;-53
2021/01/14 03:46:47;;;;;;;0.95;0.70;;;20.10;20.30;;;;;;5033890;28;20163;-53
2021/01/14 03:49:14;;;;;;;0.80;0.60;;;20.10;20.40;;;;;;5033652;28;20156;-53
2021/01/14 03:51:39;;;;;;;0.88;0.75;;;20.10;20.30;;;;;;5033749;28;20170;-53
2021/01/14 03:54:05;;;;;;;0.80;0.50;;;20.10;20.30;;;;;;5033091;28;20188;-53
2021/01/14 03:56:38;;;;;;;0.80;0.80;;;20.10;20.30;;;;;;5033759;28;20904;-53
2021/01/14 03:59:04;;;;;;;1.00;0.90;;;20.10;20.30;;;;;;5033658;28;20435;-52
2021/01/14 04:01:31;;;;;;;0.82;0.70;;;20.20;20.40;;;;;;5033778;28;20156;-52
2021/01/14 04:03:57;;;;;;;1.10;0.80;;;20.10;20.60;;;;;;5033593;28;20247;-53
2021/01/14 04:06:33;;;;;;;1.00;0.70;;;20.10;20.30;;;;;;5033550;28;20266;-52
2021/01/14 04:08:59;;;;;;;0.77;0.75;;;20.10;20.30;;;;;;5033019;28;20164;-53
2021/01/14 04:11:25;;;;;;;0.80;0.50;;;20.20;20.40;;;;;;5016132;28;20164;-52
2021/01/14 04:13:51;;;;;;;1.07;0.50;;;20.20;20.40;;;;;;5033475;28;20377;-52
2021/01/14 04:16:16;;;;;;;0.67;0.53;;;20.10;20.30;;;;;;5033528;28;20785;-52
2021/01/14 04:18:42;;;;;;;1.00;0.90;;;20.10;20.30;;;;;;5033404;28;20507;-52
2021/01/14 04:21:08;;;;;;;0.70;0.70;;;20.20;20.40;;;;;;5033406;28;20184;-52
2021/01/14 04:23:33;;;;;;;1.00;0.90;;;20.10;20.30;;;;;;5033125;28;20239;-52
2021/01/14 04:25:59;;;;;;;0.73;0.63;;;20.10;20.30;;;;;;5033981;28;20173;-52
2021/01/14 04:28:25;;;;;;;1.00;0.70;;;20.10;20.40;;;;;;5019583;28;20641;-53
2021/01/14 04:30:50;;;;;;;0.53;0.50;;;20.10;20.40;;;;;;5037442;28;20670;-53
2021/01/14 04:33:16;;;;;;;0.70;0.70;;;20.10;20.40;;;;;;5037278;28;20247;-53
2021/01/14 04:35:53;;;;;;;0.60;0.60;;;20.10;20.40;;;;;;5037447;28;20227;-52
2021/01/14 04:38:21;;;;;;;0.65;0.60;;;20.10;20.40;;;;;;5036663;28;20219;-52
2021/01/14 04:40:57;;;;;;;1.05;0.80;;;20.10;20.40;;;;;;5037178;28;20152;-52
2021/01/14 04:43:24;;;;;;;0.80;0.80;;;20.10;20.50;;;;;;5037236;28;20175;-53
2021/01/14 04:45:54;;;;;;;0.80;0.60;;;20.10;20.50;;;;;;5037205;28;20262;-52
2021/01/14 04:48:21;;;;;;;0.70;0.60;;;20.10;20.50;;;;;;5037016;28;20670;-53
2021/01/14 04:50:48;;;;;;;1.30;0.70;;;20.20;20.50;;;;;;5019384;28;20203;-53
2021/01/14 04:53:17;;;;;;;1.00;0.73;;;20.10;20.50;;;;;;5036428;28;20148;-53
2021/01/14 04:55:48;;;;;;;0.90;0.90;;;20.10;20.50;;;;;;5036749;28;20661;-54
2021/01/14 04:58:20;;;;;;;0.88;0.50;;;20.10;20.50;;;;;;5036614;28;20182;-52
2021/01/14 05:00:51;;;;;;;0.70;0.70;;;20.10;20.50;;;;;;5036681;28;20644;-53
2021/01/14 05:03:21;;;;;;;0.80;0.68;;;20.10;20.50;;;;;;5036953;28;20243;-53
2021/01/14 05:05:48;;;;;;;0.70;0.70;;;20.20;20.60;;;;;;5036891;28;20555;-54
2021/01/14 05:08:15;;;;;;;0.60;0.60;;;20.10;20.50;;;;;;5036361;28;20187;-53
2021/01/14 05:10:43;;;;;;;2.17;0.70;;;20.10;20.50;;;;;;5019163;28;20243;-54
2021/01/14 05:13:09;;;;;;;1.02;0.65;;;20.10;20.50;;;;;;5036622;28;20168;-54
2021/01/14 05:15:37;;;;;;;0.87;0.60;;;20.20;20.60;;;;;;5036599;28;20203;-53
2021/01/14 05:18:02;;;;;;;0.73;0.73;;;20.10;20.50;;;;;;5036158;28;20374;-54
2021/01/14 05:20:28;;;;;;;1.43;0.73;;;20.10;20.50;;;;;;5036511;28;20174;-53
2021/01/14 05:23:02;;;;;;;1.37;0.63;;;20.20;20.60;;;;;;5036235;28;20163;-53
2021/01/14 05:25:29;;;;;;;0.60;0.50;;;20.20;20.60;;;;;;5036592;28;20163;-53
2021/01/14 05:28:17;;;;;;;0.90;0.70;;;20.20;20.60;;;;;;5036552;28;20233;-53
2021/01/14 05:30:43;;;;;;;0.60;0.60;;;20.10;20.50;;;;;;5018530;28;20206;-54
2021/01/14 05:33:12;;;;;;;0.80;0.60;;;20.20;20.60;;;;;;5036072;28;20665;-53
2021/01/14 05:35:49;;;;;;;0.70;0.60;;;20.20;20.60;;;;;;5036413;28;20274;-54
2021/01/14 05:38:29;;;;;;;0.90;0.70;;;20.20;20.60;;;;;;5035213;28;20257;-53
2021/01/14 05:41:11;;;;;;;0.60;0.60;;;20.20;20.60;;;;;;5036158;28;20206;-53
2021/01/14 05:43:50;;;;;;;0.80;0.73;;;20.20;20.60;;;;;;5036140;28;20164;-53
2021/01/14 05:46:19;;;;;;;0.70;0.70;;;20.20;20.60;;;;;;5035942;28;20156;-53
2021/01/14 05:48:46;;;;;;;0.85;0.50;;;20.20;20.60;;;;;;5035915;28;20148;-54
2021/01/14 05:51:17;;;;;;;1.55;0.77;;;20.20;20.60;;;;;;5035891;28;20172;-53
2021/01/14 05:53:55;;;;;;;0.95;0.70;;;20.20;20.60;;;;;;5035197;28;20624;-53
2021/01/14 05:56:45;;;;;;;0.80;0.65;;;20.20;20.60;;;;;;5035757;28;20187;-53
2021/01/14 05:59:18;;;;;;;0.90;0.75;;;20.20;20.60;;;;;;5035564;28;20187;-54
2021/01/14 06:02:00;;;;;;;0.88;0.65;;;20.20;20.60;;;;;;5035417;28;20223;-53
2021/01/14 06:04:27;;;;;;;0.65;0.65;;;20.20;20.60;;;;;;5035520;28;20160;-53
2021/01/14 06:06:56;;;;;;;0.70;0.70;;;20.20;20.60;;;;;;5035537;28;20634;-53
2021/01/14 06:09:22;;;;;;;0.82;0.70;;;20.20;20.60;;;;;;5035011;28;20202;-54
2021/01/14 06:11:50;;;;;;;1.00;0.80;;;20.20;20.60;;;;;;5035537;28;20221;-54
2021/01/14 06:14:24;;;;;;;0.70;0.70;;;20.20;20.60;;;;;;5035031;28;20226;-53
2021/01/14 06:16:50;;;;;;;0.68;0.50;;;20.20;20.60;;;;;;5035303;28;20242;-53
2021/01/14 06:19:16;;;;;;;0.80;0.60;;;20.20;20.60;;;;;;5035269;28;20513;-54
2021/01/14 06:21:46;;;;;;;0.70;0.60;;;20.20;20.60;;;;;;5035164;28;20669;-53
2021/01/14 06:24:27;;;;;;;1.30;0.73;;;20.20;20.60;;;;;;5034542;28;20669;-53
2021/01/14 06:26:54;;;;;;;0.63;0.60;;;20.20;20.60;;;;;;5034980;28;20156;-54
2021/01/14 06:29:28;;;;;;;0.80;0.70;;;20.20;20.60;;;;;;5034835;28;20618;-53
2021/01/14 06:32:18;;;;;;;1.15;0.70;;;20.30;20.60;;;;;;5035007;28;20156;-53
2021/01/14 06:34:45;;;;;;;1.02;0.93;;;20.30;20.60;;;;;;5034717;28;20191;-54
2021/01/14 06:37:22;;;;;;;0.90;0.80;;;20.30;20.60;;;;;;5034372;28;20255;-53
2021/01/14 06:39:49;;;;;;;1.75;0.85;;;20.30;20.60;;;;;;5035270;28;20160;-53
2021/01/14 06:42:27;;;;;;;0.70;0.60;;;20.30;20.60;;;;;;5035172;28;20164;-54
2021/01/14 06:45:08;;;;;;;0.60;0.50;;;20.30;20.50;;;;;;5034798;28;20160;-54
2021/01/14 06:48:03;;;;;;;0.70;0.70;;;20.30;20.60;;;;;;5034576;28;20511;-53
2021/01/14 06:50:31;;;;;;;0.70;0.70;;;20.30;20.50;;;;;;5032379;28;20282;-54
2021/01/14 06:53:20;;;;;;;0.60;0.50;;;20.30;20.50;;;;;;5034086;28;20645;-53
2021/01/14 06:55:45;;;;;;;0.98;0.75;;;20.30;20.40;;;;;;5034510;28;20214;-53
2021/01/14 06:58:13;;;;;;;0.50;0.50;;;20.30;20.40;;;;;;5034383;28;20606;-53
2021/01/14 07:00:44;;;;;;;1.95;1.00;;;20.30;20.40;;;;;;5034130;28;20156;-54
2021/01/14 07:03:13;;;;;;;0.80;0.70;;;20.30;20.40;;;;;;5033982;28;20203;-53
2021/01/14 07:05:51;;;;;;;0.70;0.70;;;20.30;20.40;;;;;;5034391;28;20178;-53
2021/01/14 07:08:41;;;;;;;0.98;0.73;;;20.30;20.40;;;;;;5033729;28;20198;-53
2021/01/14 07:11:18;;;;;;;0.70;0.65;;;20.30;20.40;;;;;;5016651;28;20160;-53
2021/01/14 07:13:51;;;;;;;0.70;0.70;;;20.30;21.00;;;;;;5016111;28;20199;-53
2021/01/14 07:16:21;;;;;;;0.70;0.70;;;20.30;20.40;;;;;;5033863;28;20156;-53
2021/01/14 07:18:48;;;;;;;0.95;0.80;;;20.30;20.40;;;;;;5033933;28;20152;-53
2021/01/14 07:21:35;;;;;;;0.70;0.70;;;20.30;20.40;;;;;;5033869;28;20179;-53
2021/01/14 07:24:20;;;;;;;0.80;0.80;;;20.40;20.50;;;;;;5033352;28;20159;-53
2021/01/14 07:26:50;;;;;;;0.75;0.50;;;20.40;20.50;;;;;;5033814;28;20202;-54
2021/01/14 07:29:16;;;;;;;0.70;0.70;;;20.30;20.40;;;;;;4999394;28;20171;-54
2021/01/14 07:31:53;;;;;;;0.80;0.70;;;20.30;20.40;;;;;;5034049;28;20178;-54
2021/01/14 07:34:42;;;;;;;1.40;0.80;;;20.40;20.50;;;;;;5033467;28;20449;-54
2021/01/14 07:37:12;;;;;;;0.75;0.60;;;20.40;20.50;;;;;;5033340;28;20610;-54
2021/01/14 07:39:45;;;;;;;0.90;0.70;;;20.40;20.50;;;;;;5033556;28;20183;-53
2021/01/14 07:42:21;;;;;;;0.77;0.73;;;20.40;20.50;;;;;;5035153;28;20164;-54
2021/01/14 07:45:14;;;;;;;0.70;0.70;;;20.40;20.50;;;;;;5033632;28;20186;-54
2021/01/14 07:47:40;;;;;;;1.30;0.70;;;20.40;20.50;;;;;;5030036;28;20202;-54
2021/01/14 07:50:51;;;;;;;0.70;0.70;;;20.40;20.50;;;;;;5015949;28;20614;-53
2021/01/14 07:53:18;;;;;;;0.70;0.70;;;20.40;20.50;;;;;;4952055;28;20562;-54
2021/01/14 07:55:44;;;;;;;1.10;0.98;;;20.40;20.50;;;;;;5022682;28;20370;-54
2021/01/14 07:58:10;;;;;;;0.80;0.73;;;20.40;20.50;;;;;;5019253;28;20662;-53
2021/01/14 08:00:35;;;;;;;0.97;0.80;;;20.40;20.50;;;;;;5025870;28;20167;-54
2021/01/14 08:03:04;;;;;;;1.00;0.80;;;20.40;20.50;;;;;;5031755;28;20627;-53
2021/01/14 08:05:56;;;;;;;1.13;0.80;;;20.50;20.60;;;;;;5032828;28;20170;-53
2021/01/14 08:08:40;;;;;;;0.70;0.70;;;20.50;20.60;;;;;;4994843;28;20655;-54
2021/01/14 08:11:16;;;;;;;0.80;0.75;;;20.50;20.60;;;;;;5006973;28;20184;-54
2021/01/14 08:14:06;;;;;;;0.80;0.80;;;20.50;20.60;;;;;;5032854;28;20243;-54
2021/01/14 08:16:32;;;;;;;0.73;0.60;;;20.50;20.60;;;;;;5019459;28;20251;-54
2021/01/14 08:19:20;;;;;;;0.90;0.70;;;20.50;20.60;;;;;;5014679;28;20663;-54
2021/01/14 08:21:59;;;;;;;0.95;0.85;;;20.50;20.60;;;;;;5032904;28;20630;-54
2021/01/14 08:24:37;;;;;;;0.70;0.60;;;20.50;20.60;;;;;;5005029;28;20171;-54
2021/01/14 08:27:06;;;;;;;2.65;2.17;;;20.50;20.60;;;;;;5007953;28;20246;-60
2021/01/14 08:29:40;;;;;;;3.80;3.08;;;20.40;15.80;;;;;;5012130;28;20653;-65
2021/01/14 08:32:33;;;;;;;3.88;3.00;;;19.60;14.40;;;;;;5030016;28;20454;-63
2021/01/14 08:35:00;;;;;;;2.55;2.30;;;18.00;14.80;;;;;;5021230;28;20208;-65
2021/01/14 08:37:38;;;;;;;2.72;2.30;;;16.80;17.30;;;;;;5020581;28;20281;-55
2021/01/14 08:40:10;;;;;;;2.40;1.65;;;16.00;17.50;;;;;;5028833;28;20623;-57
2021/01/14 08:42:41;;;;;;;2.20;1.30;;;15.90;21.40;;;;;;5021179;28;20176;-55
2021/01/14 08:45:11;;;;;;;2.55;1.25;;;16.20;23.20;;;;;;5032563;28;20160;-57
2021/01/14 08:47:52;;;;;;;2.25;1.38;;;16.50;23.60;;;;;;5031829;28;20168;-57
2021/01/14 08:50:42;;;;;;;3.28;1.60;;;16.90;23.40;;;;;;5030885;28;20159;-56
2021/01/14 08:53:12;;;;;;;3.05;1.45;;;17.20;23.20;;;;;;5031902;28;20508;-57
2021/01/14 08:55:39;;;;;;;1.88;1.30;;;17.50;23.30;;;;;;5031314;28;20227;-55
2021/01/14 08:58:07;;;;;;;1.48;1.35;;;17.70;23.10;;;;;;5016380;28;20880;-55
2021/01/14 09:00:34;;;;;;;1.70;1.10;;;17.90;23.00;;;;;;5030219;28;20164;-55
2021/01/14 09:03:00;;;;;;;1.80;1.70;;;18.10;22.90;;;;;;5030218;28;20164;-55
2021/01/14 09:05:28;;;;;;;1.85;1.50;;;18.30;23.00;;;;;;5019847;28;20219;-53
2021/01/14 09:08:12;;;;;;;1.73;1.60;;;18.40;23.10;;;;;;5009962;28;20230;-54
2021/01/14 09:10:52;;;;;;;1.45;0.90;;;18.60;23.20;;;;;;5006390;28;20182;-53
2021/01/14 09:13:20;;;;;;;5.22;1.73;;;18.70;22.90;;;;;;5033935;28;20175;-53
2021/01/14 09:15:47;;;;;;;1.38;1.27;;;18.80;22.80;;;;;;5034467;28;20184;-54
2021/01/14 09:18:14;;;;;;;1.40;1.30;;;18.90;22.80;;;;;;5030653;28;20156;-55
2021/01/14 09:20:40;;;;;;;1.35;1.13;;;19.00;22.60;;;;;;5020398;28;20168;-55
2021/01/14 09:23:19;;;;;;;1.77;1.50;;;19.10;22.50;;;;;;5034721;28;20164;-54
2021/01/14 09:25:47;;;;;;;1.70;0.90;;;19.10;22.40;;;;;;5034643;28;20163;-55
2021/01/14 09:28:13;;;;;;;1.50;1.40;;;19.20;22.30;;;;;;5022384;28;20212;-55
2021/01/14 09:30:39;;;;;;;1.17;1.08;;;19.30;22.30;;;;;;5033647;28;20198;-54
2021/01/14 09:33:05;;;;;;;2.23;1.00;;;19.40;22.30;;;;;;5035287;28;20167;-55
2021/01/14 09:35:31;;;;;;;1.90;1.05;;;19.40;22.20;;;;;;5035114;28;20932;-55
2021/01/14 09:37:57;;;;;;;2.80;1.07;;;19.50;22.20;;;;;;5014900;28;20254;-54
2021/01/14 09:40:23;;;;;;;1.53;1.00;;;19.50;22.20;;;;;;5016322;28;20935;-54
2021/01/14 09:42:52;;;;;;;1.57;1.00;;;19.60;22.10;;;;;;5033951;28;20193;-54
2021/01/14 09:45:21;;;;;;;1.02;0.95;;;19.60;22.10;;;;;;5034986;28;20410;-55
2021/01/14 09:47:51;;;;;;;1.60;0.88;;;19.60;21.90;;;;;;5034169;28;20175;-55
2021/01/14 09:50:18;;;;;;;1.00;0.90;;;19.70;22.00;;;;;;5017391;28;20184;-55
2021/01/14 09:52:44;;;;;;;2.10;1.60;;;19.70;22.00;;;;;;5014275;28;20198;-55
2021/01/14 09:55:13;;;;;;;3.03;1.25;;;19.70;22.00;;;;;;5020355;28;20204;-55
2021/01/14 09:57:48;;;;;;;3.00;1.30;;;19.80;22.00;;;;;;5028714;28;20642;-55
2021/01/14 10:00:20;;;;;;;1.27;1.17;;;19.80;21.90;;;;;;5033016;28;20175;-54
2021/01/14 10:02:49;;;;;;;2.65;1.20;;;19.90;21.90;;;;;;5015929;28;20684;-55
2021/01/14 10:05:16;;;;;;;0.93;0.88;;;19.90;21.90;;;;;;5034384;28;20191;-55
2021/01/14 10:07:49;;;;;;;1.73;1.45;;;19.90;21.80;;;;;;5015088;28;20168;-54
2021/01/14 10:10:16;;;;;;;1.70;1.48;;;20.00;21.90;;;;;;5013925;28;20692;-54
2021/01/14 10:12:42;;;;;;;1.58;1.23;;;20.00;21.60;;;;;;5014186;28;20311;-54
2021/01/14 10:15:15;;;;;;;2.63;1.15;;;20.00;21.30;;;;;;5014365;28;20295;-55
2021/01/14 10:17:42;;;;;;;1.50;1.40;;;20.00;21.30;;;;;;5032380;28;20171;-56
2021/01/14 10:20:09;;;;;;;2.72;1.30;;;20.10;21.50;;;;;;5031434;28;20302;-56
2021/01/14 10:22:50;;;;;;;2.47;1.42;;;20.10;21.70;;;;;;4995181;28;20176;-56
2021/01/14 10:25:17;;;;;;;2.00;1.20;;;20.10;21.80;;;;;;5028549;28;20680;-56
2021/01/14 10:27:58;;;;;;;1.10;1.00;;;20.10;21.70;;;;;;5032065;28;20179;-56
2021/01/14 10:30:24;;;;;;;1.20;1.10;;;20.20;21.80;;;;;;5033229;28;20171;-55
2021/01/14 10:32:50;;;;;;;2.67;1.05;;;20.20;21.70;;;;;;5014781;28;20654;-57
2021/01/14 10:35:28;;;;;;;1.10;1.00;;;20.20;21.80;;;;;;5033702;28;20195;-56
2021/01/14 10:38:12;;;;;;;2.33;1.50;;;20.20;21.70;;;;;;5013537;28;20208;-54
2021/01/14 10:40:45;;;;;;;1.80;1.10;;;20.20;21.60;;;;;;5013182;28;20168;-55
2021/01/14 10:43:14;;;;;;;2.42;1.70;;;20.30;21.80;;;;;;5012780;28;20155;-56
2021/01/14 10:45:41;;;;;;;1.35;1.10;;;20.30;21.50;;;;;;5024725;28;20257;-54
2021/01/14 10:48:10;;;;;;;1.35;1.15;;;20.30;21.20;;;;;;5032772;28;20164;-54
2021/01/14 10:50:50;;;;;;;1.60;1.33;;;20.30;21.20;;;;;;5033130;28;20300;-54
2021/01/14 10:53:30;;;;;;;1.80;1.00;;;20.30;21.50;;;;;;5016481;28;20189;-56
2021/01/14 10:56:10;;;;;;;0.95;0.85;;;20.30;21.60;;;;;;5032427;28;20233;-56
2021/01/14 10:58:37;;;;;;;1.48;1.08;;;20.40;21.60;;;;;;5031500;28;20258;-55
2021/01/14 11:01:15;;;;;;;1.67;0.90;;;20.40;21.60;;;;;;5032826;28;20198;-57
2021/01/14 11:03:41;;;;;;;1.08;0.98;;;20.40;21.60;;;;;;5029547;28;20193;-56
2021/01/14 11:06:07;;;;;;;2.67;1.43;;;20.40;21.50;;;;;;5022379;28;20185;-56
2021/01/14 11:08:46;;;;;;;1.77;1.00;;;20.50;21.00;;;;;;5013427;28;20204;-57
2021/01/14 11:11:13;;;;;;;1.20;1.05;;;20.50;21.40;;;;;;5021671;28;20176;-57
2021/01/14 11:13:46;;;;;;;1.35;0.98;;;20.50;21.40;;;;;;5031716;28;20225;-57
2021/01/14 11:16:13;;;;;;;1.45;0.68;;;20.50;21.40;;;;;;5027094;28;20245;-54
2021/01/14 11:18:43;;;;;;;0.85;0.70;;;21.90;22.30;;;;;;5031547;28;20211;-56
2021/01/14 11:21:10;;;;;;;0.88;0.88;;;20.50;21.40;;;;;;5033083;28;20163;-55
2021/01/14 11:23:37;;;;;;;1.67;0.95;;;20.60;21.50;;;;;;5015430;28;20176;-56
2021/01/14 11:26:04;;;;;;;4.55;1.73;;;20.60;21.50;;;;;;5019057;28;20273;-55
2021/01/14 11:28:31;;;;;;;1.55;1.08;;;20.60;21.40;;;;;;5011141;28;20619;-54
2021/01/14 11:30:57;;;;;;;2.55;0.73;;;20.60;21.40;;;;;;5013266;28;20160;-54
2021/01/14 11:33:23;;;;;;;1.30;1.20;;;20.60;21.40;;;;;;5012806;28;20176;-55
2021/01/14 11:35:49;;;;;;;3.90;0.93;;;20.60;21.30;;;;;;5015827;28;20199;-56
2021/01/14 11:38:14;;;;;;;1.00;0.83;;;20.60;21.40;;;;;;5031131;28;20230;-56
2021/01/14 11:40:40;;;;;;;1.30;1.20;;;20.60;21.40;;;;;;5015664;28;20222;-55
2021/01/14 11:43:06;;;;;;;1.50;0.93;;;20.60;21.50;;;;;;5017199;28;20177;-55
2021/01/14 11:45:31;;;;;;;1.27;0.90;;;20.60;21.50;;;;;;5017641;28;20194;-55
2021/01/14 11:47:57;;;;;;;1.00;0.90;;;20.60;21.50;;;;;;5031990;28;20567;-56
2021/01/14 11:50:23;;;;;;;1.58;1.02;;;;;;;;;;5029868;28;20731;-57
2021/01/14 11:52:49;;;;;;;1.93;1.00;;;20.60;21.10;;;;;;5027635;28;20258;-58
2021/01/14 11:55:15;;;;;;;1.07;0.93;;;20.70;21.60;;;;;;5028909;28;20470;-57
2021/01/14 11:57:41;;;;;;;2.77;1.00;;;20.70;21.50;;;;;;5012593;28;20248;-57
2021/01/14 12:00:10;;;;;;;1.37;1.00;;;20.70;21.50;;;;;;5012624;28;20409;-57
2021/01/14 12:02:37;;;;;;;5.93;1.00;;;20.70;21.40;;;;;;5022482;28;20634;-57
2021/01/14 12:05:03;;;;;;;2.90;1.00;;;20.80;21.40;;;;;;5011441;28;20179;-57
2021/01/14 12:07:29;;;;;;;1.40;1.30;;;20.80;21.30;;;;;;5011610;28;20921;-57
2021/01/14 12:09:56;;;;;;;0.90;0.80;;;20.80;21.20;;;;;;5011450;28;20226;-55
2021/01/14 12:12:22;;;;;;;1.35;1.25;;;20.80;21.20;;;;;;5020485;28;20183;-54
2021/01/14 12:14:48;;;;;;;1.80;0.90;;;20.90;20.80;;;;;;5022632;28;20227;-54
2021/01/14 12:17:14;;;;;;;5.83;1.20;;;20.90;20.90;;;;;;5029993;28;20534;-55
2021/01/14 12:19:39;;;;;;;4.07;1.48;;;20.90;21.40;;;;;;5022435;28;20191;-57
2021/01/14 12:22:06;;;;;;;5.47;1.33;;;20.90;21.20;;;;;;5015168;28;20211;-56
2021/01/14 12:24:32;;;;;;;2.92;1.50;;;20.90;21.80;;;;;;5017635;28;20182;-54
2021/01/14 12:26:59;;;;;;;3.33;1.00;;;20.90;22.00;;;;;;5026978;28;20188;-55
2021/01/14 12:29:24;;;;;;;1.85;1.50;;;20.90;22.10;;;;;;5011038;28;20192;-55
2021/01/14 12:31:52;;;;;;;1.43;0.90;;;21.00;21.90;;;;;;5012374;28;20255;-55
2021/01/14 12:34:17;;;;;;;1.88;1.40;;;21.00;21.90;;;;;;5011628;28;20263;-53
2021/01/14 12:36:43;;;;;;;1.97;1.10;;;21.00;21.80;;;;;;5018035;28;20303;-53
2021/01/14 12:39:09;;;;;;;3.30;1.10;;;21.00;21.90;;;;;;5021853;28;20929;-53
2021/01/14 12:41:35;;;;;;;1.77;1.30;;;21.10;21.70;;;;;;5032196;28;20152;-58
2021/01/14 12:44:02;;;;;;;2.57;1.23;;;21.10;21.50;;;;;;5032061;28;20167;-55
2021/01/14 12:46:54;;;;;;;1.23;1.10;;;21.10;21.40;;;;;;5024898;28;20211;-56
2021/01/14 12:49:20;;;;;;;2.35;1.00;;;21.10;21.90;;;;;;5030258;28;20211;-55
2021/01/14 12:51:46;;;;;;;2.00;0.90;;;21.10;21.10;;;;;;5028363;28;20575;-55
2021/01/14 12:54:12;;;;;;;1.00;0.90;;;21.10;21.00;;;;;;5013836;28;20159;-55
2021/01/14 12:56:38;;;;;;;1.98;1.23;;;21.10;21.10;;;;;;5027750;28;20706;-54
2021/01/14 12:59:05;;;;;;;2.83;1.60;;;21.10;21.20;;;;;;5034948;28;20168;-54
2021/01/14 13:01:35;;;;;;;1.77;0.88;;;21.10;21.20;;;;;;5035414;28;20815;-55
2021/01/14 13:04:02;;;;;;;2.80;1.60;;;21.10;21.20;;;;;;5035375;28;20205;-54
2021/01/14 13:06:29;;;;;;;2.38;1.20;;;21.10;21.30;;;;;;5024808;28;20187;-54
2021/01/14 13:08:57;;;;;;;1.77;1.20;;;21.10;21.30;;;;;;5014359;28;20188;-53
2021/01/14 13:11:23;;;;;;;2.35;1.25;;;21.10;21.30;;;;;;5015903;28;20238;-58
2021/01/14 13:13:49;;;;;;;3.83;1.20;;;21.10;21.30;;;;;;5015652;28;20167;-53
2021/01/14 13:16:14;;;;;;;5.83;1.50;;;21.10;21.40;;;;;;5006371;28;20199;-57
2021/01/14 13:18:40;;;;;;;1.53;1.10;;;21.10;21.30;;;;;;5032774;28;20772;-57
2021/01/14 13:21:06;;;;;;;4.83;1.33;;;21.10;21.40;;;;;;5025689;28;20172;-56
2021/01/14 13:23:32;;;;;;;1.20;1.00;;;21.10;21.40;;;;;;5014812;28;20153;-56
2021/01/14 13:25:58;;;;;;;2.37;1.50;;;21.10;21.30;;;;;;5020908;28;20184;-56
2021/01/14 13:28:23;;;;;;;1.63;1.13;;;21.10;21.30;;;;;;5033847;28;20183;-56
2021/01/14 13:30:49;;;;;;;1.50;1.23;;;21.10;21.20;;;;;;5034219;28;20186;-56
2021/01/14 13:33:15;;;;;;;2.40;1.10;;;21.10;21.30;;;;;;5035341;28;20206;-56
2021/01/14 13:35:40;;;;;;;1.37;1.10;;;21.10;21.80;;;;;;5032275;28;20195;-54
2021/01/14 13:38:06;;;;;;;2.40;1.37;;;21.10;21.10;;;;;;5022037;28;20224;-54
2021/01/14 13:40:32;;;;;;;2.93;2.00;;;21.10;21.00;;;;;;5016269;28;20208;-55
2021/01/14 13:42:58;;;;;;;2.07;1.27;;;21.10;21.00;;;;;;5017549;28;20181;-53
2021/01/14 13:45:23;;;;;;;3.87;1.40;;;21.10;21.00;;;;;;5016886;28;20492;-53
2021/01/14 13:47:49;;;;;;;2.73;1.83;;;21.10;21.40;;;;;;5034315;28;20191;-53
2021/01/14 13:50:15;;;;;;;3.00;1.40;;;21.10;21.40;;;;;;5025290;28;20551;-54
2021/01/14 13:52:41;;;;;;;2.20;1.10;;;21.10;21.40;;;;;;5014890;28;20172;-53
2021/01/14 13:55:07;;;;;;;2.30;1.10;;;21.10;21.40;;;;;;5015465;28;20656;-57
2021/01/14 13:57:33;;;;;;;2.47;1.42;;;21.10;21.40;;;;;;5014772;28;20639;-54